Kansas City International Airport
KMCI : rendu visible

Aérodrome :











RETROUVEZ-NOUS SUR...

 
LOGIN :

S'inscrire | Disclaimer

   EN    FR    IT 

 









Légende :    VFR   VFR Marginal   IFR   IFR Intensif   IFR Très Intensif
Visi : 
Plafond : 
>= 8 km
>= 3000ft
5 à 8 km
1000 à 3000 ft
1500m à 5 km
500 à 1000 ft
800 à 1500m
200 à 500 ft
< 800m
< 200 ft
Symboles :   Orages  Brouillard  Fortes neiges  Fortes précipitations  Vent > 20 kt







- Altitude de l'aérodrome : 1026 ft
- Code IATA : MCI


KMCI - Kansas City International

DERNIER METAR :
  • 202153Z 15008KT 120V190 10SM FEW050 FEW250 29/19 A2975 RMK AO2 SLP062 T02940194

METARs EXPIRÉS :
  • 202053Z 17009KT 10SM FEW040 SCT250 29/19 A2975 RMK AO2 SLP064 T02890189 58013
  • 201953Z 18012G16KT 10SM FEW040 FEW250 28/19 A2976 RMK AO2 SLP066 T02830194

TAF KMCI
Valide du 20 à 18h jusqu'au 21 à 18h UTC


201722Z 2018/2118 19008KT P6SM FEW250
FM210200 17007KT P6SM VCTS BKN100CB
FM210800 16008KT P6SM -TSRA SCT025 BKN040CB
FM211500 15009KT P6SM VCSH BKN045
FIR KZKC / Amérique du Nord



MET'MAP, la Météo Aéronautique d'un coup d'oeil ! - Copyright ORBIFLY Décembre 2007 - Disclaimer

ORBIFLY MET'MAP TEAM :

Programmation & Développement : Alexandra Zaïnal
Conception & Développement : Baudouin d'Aumeries
Co-Programmation & Développement : Marc-Olivier Méhu
Soutien technique & logistique : Manuel Goepfert

Contact : metmap@orbifly.com




SOURCES & CREDITS :

   NOAA       Earth
Advisory